sensor_id;sensor_type;location;lat;lon;timestamp;temperature;humidity
19805;DHT22;10062;51.052;13.756;2022-10-03T00:00:24;12.10;1.00
19805;DHT22;10062;51.052;13.756;2022-10-03T00:03:21;12.00;1.00
19805;DHT22;10062;51.052;13.756;2022-10-03T00:06:05;12.10;1.00
19805;DHT22;10062;51.052;13.756;2022-10-03T00:09:08;12.10;1.00
19805;DHT22;10062;51.052;13.756;2022-10-03T00:11:55;12.10;1.00
19805;DHT22;10062;51.052;13.756;2022-10-03T00:14:38;12.10;1.00
19805;DHT22;10062;51.052;13.756;2022-10-03T00:17:16;12.10;1.00
19805;DHT22;10062;51.052;13.756;2022-10-03T00:19:57;12.10;1.00
19805;DHT22;10062;51.052;13.756;2022-10-03T00:22:37;12.10;1.00
19805;DHT22;10062;51.052;13.756;2022-10-03T00:25:27;12.10;1.00
19805;DHT22;10062;51.052;13.756;2022-10-03T00:28:23;12.00;1.00
19805;DHT22;10062;51.052;13.756;2022-10-03T00:31:08;12.00;1.00
19805;DHT22;10062;51.052;13.756;2022-10-03T00:33:52;12.10;1.00
19805;DHT22;10062;51.052;13.756;2022-10-03T00:36:41;12.10;1.00
19805;DHT22;10062;51.052;13.756;2022-10-03T00:39:29;12.10;1.00
19805;DHT22;10062;51.052;13.756;2022-10-03T00:45:46;12.00;1.00
19805;DHT22;10062;51.052;13.756;2022-10-03T00:48:54;11.90;1.00
19805;DHT22;10062;51.052;13.756;2022-10-03T00:51:38;11.90;1.00
19805;DHT22;10062;51.052;13.756;2022-10-03T00:54:27;12.60;1.00
19805;DHT22;10062;51.052;13.756;2022-10-03T00:57:19;12.00;1.00
19805;DHT22;10062;51.052;13.756;2022-10-03T01:00:12;12.00;1.00
19805;DHT22;10062;51.052;13.756;2022-10-03T01:02:59;12.00;1.00
19805;DHT22;10062;51.052;13.756;2022-10-03T01:05:46;12.00;1.00
19805;DHT22;10062;51.052;13.756;2022-10-03T01:08:36;12.00;1.00
19805;DHT22;10062;51.052;13.756;2022-10-03T01:11:23;12.10;1.00
19805;DHT22;10062;51.052;13.756;2022-10-03T01:14:06;12.10;1.00
19805;DHT22;10062;51.052;13.756;2022-10-03T01:16:51;12.10;1.00
19805;DHT22;10062;51.052;13.756;2022-10-03T01:19:57;12.10;1.00
19805;DHT22;10062;51.052;13.756;2022-10-03T01:22:48;12.10;1.00
19805;DHT22;10062;51.052;13.756;2022-10-03T01:25:38;12.50;1.00
19805;DHT22;10062;51.052;13.756;2022-10-03T01:28:23;12.20;1.00
19805;DHT22;10062;51.052;13.756;2022-10-03T01:31:20;12.30;1.00
19805;DHT22;10062;51.052;13.756;2022-10-03T01:34:00;12.30;1.00
19805;DHT22;10062;51.052;13.756;2022-10-03T01:36:39;12.20;1.00
19805;DHT22;10062;51.052;13.756;2022-10-03T01:39:20;12.20;1.00
19805;DHT22;10062;51.052;13.756;2022-10-03T01:42:00;12.40;1.00
19805;DHT22;10062;51.052;13.756;2022-10-03T01:44:44;12.30;1.00
19805;DHT22;10062;51.052;13.756;2022-10-03T01:47:27;12.30;1.00
19805;DHT22;10062;51.052;13.756;2022-10-03T01:50:06;12.20;1.00
19805;DHT22;10062;51.052;13.756;2022-10-03T01:52:47;12.20;1.00
19805;DHT22;10062;51.052;13.756;2022-10-03T01:55:27;12.20;1.00
19805;DHT22;10062;51.052;13.756;2022-10-03T01:58:04;12.20;1.00
19805;DHT22;10062;51.052;13.756;2022-10-03T02:00:46;12.10;1.00
19805;DHT22;10062;51.052;13.756;2022-10-03T02:03:26;12.20;1.00
19805;DHT22;10062;51.052;13.756;2022-10-03T02:06:04;12.20;1.00
19805;DHT22;10062;51.052;13.756;2022-10-03T02:08:46;12.30;1.00
19805;DHT22;10062;51.052;13.756;2022-10-03T02:11:29;12.30;1.00
19805;DHT22;10062;51.052;13.756;2022-10-03T02:14:14;12.40;1.00
19805;DHT22;10062;51.052;13.756;2022-10-03T02:16:56;12.30;1.00
19805;DHT22;10062;51.052;13.756;2022-10-03T02:19:35;12.30;1.00
19805;DHT22;10062;51.052;13.756;2022-10-03T02:22:26;12.20;1.00
19805;DHT22;10062;51.052;13.756;2022-10-03T02:25:19;12.20;9.60
19805;DHT22;10062;51.052;13.756;2022-10-03T02:28:13;12.20;16.70
19805;DHT22;10062;51.052;13.756;2022-10-03T02:31:13;12.20;29.90
19805;DHT22;10062;51.052;13.756;2022-10-03T02:34:05;12.30;20.00
19805;DHT22;10062;51.052;13.756;2022-10-03T02:37:08;12.20;19.00
19805;DHT22;10062;51.052;13.756;2022-10-03T02:43:40;12.20;24.40
19805;DHT22;10062;51.052;13.756;2022-10-03T02:46:58;12.10;28.70
19805;DHT22;10062;51.052;13.756;2022-10-03T02:50:06;12.10;40.60
19805;DHT22;10062;51.052;13.756;2022-10-03T02:53:13;12.10;37.30
19805;DHT22;10062;51.052;13.756;2022-10-03T02:56:20;12.10;20.20
19805;DHT22;10062;51.052;13.756;2022-10-03T03:05:28;12.00;42.50
19805;DHT22;10062;51.052;13.756;2022-10-03T03:08:17;12.10;22.90
19805;DHT22;10062;51.052;13.756;2022-10-03T03:11:12;12.10;23.40
19805;DHT22;10062;51.052;13.756;2022-10-03T03:14:10;12.20;15.40
19805;DHT22;10062;51.052;13.756;2022-10-03T03:17:12;12.10;12.80
19805;DHT22;10062;51.052;13.756;2022-10-03T03:19:57;12.10;10.00
19805;DHT22;10062;51.052;13.756;2022-10-03T03:22:39;12.10;16.40
19805;DHT22;10062;51.052;13.756;2022-10-03T03:25:34;12.10;13.70
19805;DHT22;10062;51.052;13.756;2022-10-03T03:28:19;12.10;11.30
19805;DHT22;10062;51.052;13.756;2022-10-03T03:31:04;12.20;6.00
19805;DHT22;10062;51.052;13.756;2022-10-03T03:33:48;12.10;7.70
19805;DHT22;10062;51.052;13.756;2022-10-03T03:36:29;12.10;3.50
19805;DHT22;10062;51.052;13.756;2022-10-03T03:39:22;12.10;1.00
19805;DHT22;10062;51.052;13.756;2022-10-03T03:42:07;12.20;1.00
19805;DHT22;10062;51.052;13.756;2022-10-03T03:44:57;12.20;1.00
19805;DHT22;10062;51.052;13.756;2022-10-03T03:47:51;12.20;1.00
19805;DHT22;10062;51.052;13.756;2022-10-03T03:50:37;12.10;1.00
19805;DHT22;10062;51.052;13.756;2022-10-03T03:56:40;12.00;1.00
19805;DHT22;10062;51.052;13.756;2022-10-03T03:59:34;12.00;1.00
19805;DHT22;10062;51.052;13.756;2022-10-03T04:02:18;12.10;1.00
19805;DHT22;10062;51.052;13.756;2022-10-03T04:04:59;12.10;1.00
19805;DHT22;10062;51.052;13.756;2022-10-03T04:07:46;12.10;1.00
19805;DHT22;10062;51.052;13.756;2022-10-03T04:10:35;12.10;1.00
19805;DHT22;10062;51.052;13.756;2022-10-03T04:13:33;12.10;1.00
19805;DHT22;10062;51.052;13.756;2022-10-03T04:19:32;12.20;1.00
19805;DHT22;10062;51.052;13.756;2022-10-03T04:22:21;12.20;1.00
19805;DHT22;10062;51.052;13.756;2022-10-03T04:25:11;12.10;1.00
19805;DHT22;10062;51.052;13.756;2022-10-03T04:28:08;12.20;1.00
19805;DHT22;10062;51.052;13.756;2022-10-03T04:30:50;12.00;1.00
19805;DHT22;10062;51.052;13.756;2022-10-03T04:33:34;12.00;1.00
19805;DHT22;10062;51.052;13.756;2022-10-03T04:39:24;12.10;1.00
19805;DHT22;10062;51.052;13.756;2022-10-03T04:42:03;12.10;1.00
19805;DHT22;10062;51.052;13.756;2022-10-03T04:44:48;12.20;1.00
19805;DHT22;10062;51.052;13.756;2022-10-03T04:47:30;12.00;1.00
19805;DHT22;10062;51.052;13.756;2022-10-03T04:50:12;12.20;1.00
19805;DHT22;10062;51.052;13.756;2022-10-03T04:52:56;12.10;1.00
19805;DHT22;10062;51.052;13.756;2022-10-03T04:55:37;12.40;3.80
19805;DHT22;10062;51.052;13.756;2022-10-03T04:58:20;12.10;2.90
19805;DHT22;10062;51.052;13.756;2022-10-03T05:01:01;12.40;1.00
19805;DHT22;10062;51.052;13.756;2022-10-03T05:03:42;12.10;1.00
19805;DHT22;10062;51.052;13.756;2022-10-03T05:06:25;12.00;1.00
19805;DHT22;10062;51.052;13.756;2022-10-03T05:09:04;12.10;1.00
19805;DHT22;10062;51.052;13.756;2022-10-03T05:11:52;12.00;1.00
19805;DHT22;10062;51.052;13.756;2022-10-03T05:14:28;11.90;6.50
19805;DHT22;10062;51.052;13.756;2022-10-03T05:17:11;11.90;13.70
19805;DHT22;10062;51.052;13.756;2022-10-03T05:20:02;11.90;17.50
19805;DHT22;10062;51.052;13.756;2022-10-03T05:22:46;12.00;14.00
19805;DHT22;10062;51.052;13.756;2022-10-03T05:25:33;12.00;28.90
19805;DHT22;10062;51.052;13.756;2022-10-03T05:28:18;12.00;38.40
19805;DHT22;10062;51.052;13.756;2022-10-03T05:30:59;11.90;57.20
19805;DHT22;10062;51.052;13.756;2022-10-03T05:33:37;11.80;62.50
19805;DHT22;10062;51.052;13.756;2022-10-03T05:36:21;11.90;61.80
19805;DHT22;10062;51.052;13.756;2022-10-03T05:39:23;11.90;55.60
19805;DHT22;10062;51.052;13.756;2022-10-03T05:42:10;11.90;55.90
19805;DHT22;10062;51.052;13.756;2022-10-03T05:44:49;11.90;67.80
19805;DHT22;10062;51.052;13.756;2022-10-03T05:47:28;11.90;68.40
19805;DHT22;10062;51.052;13.756;2022-10-03T05:50:52;11.80;78.00
19805;DHT22;10062;51.052;13.756;2022-10-03T05:53:47;11.80;92.40
19805;DHT22;10062;51.052;13.756;2022-10-03T05:56:32;11.80;92.70
19805;DHT22;10062;51.052;13.756;2022-10-03T05:59:41;11.80;79.00
19805;DHT22;10062;51.052;13.756;2022-10-03T06:05:35;11.90;79.60
19805;DHT22;10062;51.052;13.756;2022-10-03T06:08:37;11.90;72.90
19805;DHT22;10062;51.052;13.756;2022-10-03T06:11:26;12.00;60.00
19805;DHT22;10062;51.052;13.756;2022-10-03T06:14:17;12.00;52.40
19805;DHT22;10062;51.052;13.756;2022-10-03T06:17:02;12.00;56.20
19805;DHT22;10062;51.052;13.756;2022-10-03T06:19:46;12.00;46.50
19805;DHT22;10062;51.052;13.756;2022-10-03T06:22:50;12.10;48.00
19805;DHT22;10062;51.052;13.756;2022-10-03T06:29:01;12.10;32.40
19805;DHT22;10062;51.052;13.756;2022-10-03T06:32:05;12.10;31.00
19805;DHT22;10062;51.052;13.756;2022-10-03T06:38:32;12.20;24.20
19805;DHT22;10062;51.052;13.756;2022-10-03T06:41:33;12.20;29.90
19805;DHT22;10062;51.052;13.756;2022-10-03T06:44:22;12.30;20.30
19805;DHT22;10062;51.052;13.756;2022-10-03T06:53:28;12.40;5.40
19805;DHT22;10062;51.052;13.756;2022-10-03T06:56:19;12.50;12.20
19805;DHT22;10062;51.052;13.756;2022-10-03T06:59:11;12.50;7.50
19805;DHT22;10062;51.052;13.756;2022-10-03T07:02:04;12.60;1.00
19805;DHT22;10062;51.052;13.756;2022-10-03T07:05:07;12.60;1.00
19805;DHT22;10062;51.052;13.756;2022-10-03T07:08:27;12.70;1.00
19805;DHT22;10062;51.052;13.756;2022-10-03T07:11:43;12.60;1.00
19805;DHT22;10062;51.052;13.756;2022-10-03T07:15:00;12.60;1.00
19805;DHT22;10062;51.052;13.756;2022-10-03T07:17:50;12.70;1.00
19805;DHT22;10062;51.052;13.756;2022-10-03T07:20:47;12.70;1.00
19805;DHT22;10062;51.052;13.756;2022-10-03T07:24:01;12.70;1.00
19805;DHT22;10062;51.052;13.756;2022-10-03T07:27:04;12.70;1.00
19805;DHT22;10062;51.052;13.756;2022-10-03T07:29:55;12.70;1.00
19805;DHT22;10062;51.052;13.756;2022-10-03T07:32:57;12.80;1.00
19805;DHT22;10062;51.052;13.756;2022-10-03T07:35:43;12.70;1.00
19805;DHT22;10062;51.052;13.756;2022-10-03T07:38:51;12.60;20.40
19805;DHT22;10062;51.052;13.756;2022-10-03T07:41:43;12.50;42.90
19805;DHT22;10062;51.052;13.756;2022-10-03T07:44:53;12.40;59.00
19805;DHT22;10062;51.052;13.756;2022-10-03T07:54:19;12.50;35.30
19805;DHT22;10062;51.052;13.756;2022-10-03T08:00:21;12.70;38.70
19805;DHT22;10062;51.052;13.756;2022-10-03T08:03:35;12.90;1.00
19805;DHT22;10062;51.052;13.756;2022-10-03T08:06:20;13.10;1.00
19805;DHT22;10062;51.052;13.756;2022-10-03T08:15:22;13.10;1.00
19805;DHT22;10062;51.052;13.756;2022-10-03T08:18:33;13.10;1.00
19805;DHT22;10062;51.052;13.756;2022-10-03T08:21:17;13.10;1.00
19805;DHT22;10062;51.052;13.756;2022-10-03T08:27:09;13.30;1.00
19805;DHT22;10062;51.052;13.756;2022-10-03T08:30:05;13.50;1.00
19805;DHT22;10062;51.052;13.756;2022-10-03T08:32:55;13.60;1.00
19805;DHT22;10062;51.052;13.756;2022-10-03T08:36:15;13.70;1.00
19805;DHT22;10062;51.052;13.756;2022-10-03T08:39:12;14.00;1.00
19805;DHT22;10062;51.052;13.756;2022-10-03T08:45:26;14.00;1.00
19805;DHT22;10062;51.052;13.756;2022-10-03T08:48:43;14.10;1.00
19805;DHT22;10062;51.052;13.756;2022-10-03T08:51:55;14.30;1.00
19805;DHT22;10062;51.052;13.756;2022-10-03T08:58:27;14.40;1.00
19805;DHT22;10062;51.052;13.756;2022-10-03T09:01:25;14.20;1.00
19805;DHT22;10062;51.052;13.756;2022-10-03T09:07:27;14.30;1.00
19805;DHT22;10062;51.052;13.756;2022-10-03T09:10:46;14.30;1.00
19805;DHT22;10062;51.052;13.756;2022-10-03T09:16:49;14.50;1.00
19805;DHT22;10062;51.052;13.756;2022-10-03T09:19:52;14.60;1.00
19805;DHT22;10062;51.052;13.756;2022-10-03T09:22:48;14.60;1.00
19805;DHT22;10062;51.052;13.756;2022-10-03T09:25:29;14.50;1.00
19805;DHT22;10062;51.052;13.756;2022-10-03T09:28:35;15.20;1.00
19805;DHT22;10062;51.052;13.756;2022-10-03T09:31:37;16.30;1.00
19805;DHT22;10062;51.052;13.756;2022-10-03T09:34:32;16.40;1.00
19805;DHT22;10062;51.052;13.756;2022-10-03T09:37:28;16.20;17.00
19805;DHT22;10062;51.052;13.756;2022-10-03T09:43:41;15.60;1.00
19805;DHT22;10062;51.052;13.756;2022-10-03T09:46:47;16.50;1.00
19805;DHT22;10062;51.052;13.756;2022-10-03T09:52:56;21.00;1.00
19805;DHT22;10062;51.052;13.756;2022-10-03T09:55:43;23.30;1.00
19805;DHT22;10062;51.052;13.756;2022-10-03T09:58:44;24.80;99.90
19805;DHT22;10062;51.052;13.756;2022-10-03T10:01:27;23.30;67.90
19805;DHT22;10062;51.052;13.756;2022-10-03T10:04:39;21.70;99.90
19805;DHT22;10062;51.052;13.756;2022-10-03T10:07:36;20.10;99.90
19805;DHT22;10062;51.052;13.756;2022-10-03T10:13:41;17.90;1.00
19805;DHT22;10062;51.052;13.756;2022-10-03T10:16:52;17.20;1.00
19805;DHT22;10062;51.052;13.756;2022-10-03T10:19:42;16.60;1.00
19805;DHT22;10062;51.052;13.756;2022-10-03T10:51:51;21.60;99.90
19805;DHT22;10062;51.052;13.756;2022-10-03T10:55:07;19.80;99.90
19805;DHT22;10062;51.052;13.756;2022-10-03T10:58:06;19.20;1.00
19805;DHT22;10062;51.052;13.756;2022-10-03T11:01:08;21.00;1.00
19805;DHT22;10062;51.052;13.756;2022-10-03T11:04:17;21.50;99.90
19805;DHT22;10062;51.052;13.756;2022-10-03T11:07:15;20.30;99.90
19805;DHT22;10062;51.052;13.756;2022-10-03T11:10:07;18.80;1.00
19805;DHT22;10062;51.052;13.756;2022-10-03T11:13:16;18.80;1.00
19805;DHT22;10062;51.052;13.756;2022-10-03T11:19:29;18.00;1.00
19805;DHT22;10062;51.052;13.756;2022-10-03T11:22:36;17.70;99.90
19805;DHT22;10062;51.052;13.756;2022-10-03T11:25:50;17.40;99.90
19805;DHT22;10062;51.052;13.756;2022-10-03T11:29:05;17.00;1.00
19805;DHT22;10062;51.052;13.756;2022-10-03T11:32:07;17.00;1.00
19805;DHT22;10062;51.052;13.756;2022-10-03T11:38:04;16.90;1.00
19805;DHT22;10062;51.052;13.756;2022-10-03T11:40:50;16.80;1.00
19805;DHT22;10062;51.052;13.756;2022-10-03T11:43:53;16.60;1.00
19805;DHT22;10062;51.052;13.756;2022-10-03T11:46:48;16.60;1.00
19805;DHT22;10062;51.052;13.756;2022-10-03T11:50:03;16.40;1.00
19805;DHT22;10062;51.052;13.756;2022-10-03T11:52:50;16.40;1.00
19805;DHT22;10062;51.052;13.756;2022-10-03T11:55:30;16.30;99.90
19805;DHT22;10062;51.052;13.756;2022-10-03T11:58:15;16.40;1.00
19805;DHT22;10062;51.052;13.756;2022-10-03T12:00:58;16.20;1.00
19805;DHT22;10062;51.052;13.756;2022-10-03T12:03:35;16.10;48.30
19805;DHT22;10062;51.052;13.756;2022-10-03T12:06:24;16.10;1.00
19805;DHT22;10062;51.052;13.756;2022-10-03T12:09:18;16.20;13.40
19805;DHT22;10062;51.052;13.756;2022-10-03T12:11:58;16.20;61.90
19805;DHT22;10062;51.052;13.756;2022-10-03T12:14:40;16.50;1.00
19805;DHT22;10062;51.052;13.756;2022-10-03T12:17:16;16.70;1.00
19805;DHT22;10062;51.052;13.756;2022-10-03T12:20:00;16.60;19.20
19805;DHT22;10062;51.052;13.756;2022-10-03T12:22:41;16.70;1.00
19805;DHT22;10062;51.052;13.756;2022-10-03T12:25:19;16.70;1.00
19805;DHT22;10062;51.052;13.756;2022-10-03T12:28:09;15.30;1.00
19805;DHT22;10062;51.052;13.756;2022-10-03T12:30:47;17.00;1.00
19805;DHT22;10062;51.052;13.756;2022-10-03T12:33:30;16.70;1.00
19805;DHT22;10062;51.052;13.756;2022-10-03T12:36:10;17.40;1.00
19805;DHT22;10062;51.052;13.756;2022-10-03T12:39:02;16.70;99.90
19805;DHT22;10062;51.052;13.756;2022-10-03T12:41:55;16.50;1.00
19805;DHT22;10062;51.052;13.756;2022-10-03T12:44:37;16.50;99.90
19805;DHT22;10062;51.052;13.756;2022-10-03T12:47:26;16.40;99.90
19805;DHT22;10062;51.052;13.756;2022-10-03T12:50:08;16.40;99.90
19805;DHT22;10062;51.052;13.756;2022-10-03T12:52:47;16.30;1.00
19805;DHT22;10062;51.052;13.756;2022-10-03T12:55:27;16.10;1.00
19805;DHT22;10062;51.052;13.756;2022-10-03T12:58:05;17.10;99.90
19805;DHT22;10062;51.052;13.756;2022-10-03T13:00:47;16.00;1.00
19805;DHT22;10062;51.052;13.756;2022-10-03T13:03:33;15.90;1.00
19805;DHT22;10062;51.052;13.756;2022-10-03T13:06:24;15.90;1.00
19805;DHT22;10062;51.052;13.756;2022-10-03T13:09:10;15.70;99.90
19805;DHT22;10062;51.052;13.756;2022-10-03T13:11:56;15.60;1.00
19805;DHT22;10062;51.052;13.756;2022-10-03T13:17:38;15.60;1.00
19805;DHT22;10062;51.052;13.756;2022-10-03T13:20:22;15.70;1.00
19805;DHT22;10062;51.052;13.756;2022-10-03T13:23:03;15.70;1.00
19805;DHT22;10062;51.052;13.756;2022-10-03T13:25:41;15.70;1.00
19805;DHT22;10062;51.052;13.756;2022-10-03T13:28:19;15.60;8.10
19805;DHT22;10062;51.052;13.756;2022-10-03T13:30:58;15.70;1.00
19805;DHT22;10062;51.052;13.756;2022-10-03T13:33:40;15.80;1.00
19805;DHT22;10062;51.052;13.756;2022-10-03T13:36:17;15.80;1.00
19805;DHT22;10062;51.052;13.756;2022-10-03T13:39:08;15.90;1.00
19805;DHT22;10062;51.052;13.756;2022-10-03T13:41:57;16.10;1.00
19805;DHT22;10062;51.052;13.756;2022-10-03T13:44:36;16.30;1.00
19805;DHT22;10062;51.052;13.756;2022-10-03T13:47:40;16.40;99.90
19805;DHT22;10062;51.052;13.756;2022-10-03T13:50:16;16.40;1.00
19805;DHT22;10062;51.052;13.756;2022-10-03T13:52:52;16.40;90.90
19805;DHT22;10062;51.052;13.756;2022-10-03T13:55:34;16.30;99.90
19805;DHT22;10062;51.052;13.756;2022-10-03T13:58:32;16.20;1.00
19805;DHT22;10062;51.052;13.756;2022-10-03T14:01:29;16.30;1.00
19805;DHT22;10062;51.052;13.756;2022-10-03T14:04:24;16.10;99.90
19805;DHT22;10062;51.052;13.756;2022-10-03T14:07:09;16.00;1.00
19805;DHT22;10062;51.052;13.756;2022-10-03T14:10:00;16.00;99.90
19805;DHT22;10062;51.052;13.756;2022-10-03T14:12:45;16.00;1.00
19805;DHT22;10062;51.052;13.756;2022-10-03T14:15:32;15.90;99.90
19805;DHT22;10062;51.052;13.756;2022-10-03T14:18:16;15.80;99.90
19805;DHT22;10062;51.052;13.756;2022-10-03T14:21:29;15.90;1.00
19805;DHT22;10062;51.052;13.756;2022-10-03T14:24:14;15.80;1.00
19805;DHT22;10062;51.052;13.756;2022-10-03T14:26:54;15.70;1.00
19805;DHT22;10062;51.052;13.756;2022-10-03T14:29:34;15.60;99.90
19805;DHT22;10062;51.052;13.756;2022-10-03T14:32:16;15.40;1.00
19805;DHT22;10062;51.052;13.756;2022-10-03T14:34:56;15.40;99.90
19805;DHT22;10062;51.052;13.756;2022-10-03T14:37:38;15.50;1.00
19805;DHT22;10062;51.052;13.756;2022-10-03T14:40:15;15.50;1.00
19805;DHT22;10062;51.052;13.756;2022-10-03T14:42:58;15.40;1.00
19805;DHT22;10062;51.052;13.756;2022-10-03T14:45:38;15.40;1.00
19805;DHT22;10062;51.052;13.756;2022-10-03T14:48:17;15.50;99.90
19805;DHT22;10062;51.052;13.756;2022-10-03T14:50:54;15.60;99.90
19805;DHT22;10062;51.052;13.756;2022-10-03T14:53:32;15.50;99.90
19805;DHT22;10062;51.052;13.756;2022-10-03T14:56:08;15.60;37.50
19805;DHT22;10062;51.052;13.756;2022-10-03T14:58:45;15.70;1.00
19805;DHT22;10062;51.052;13.756;2022-10-03T15:01:19;15.70;1.00
19805;DHT22;10062;51.052;13.756;2022-10-03T15:04:00;15.70;1.00
19805;DHT22;10062;51.052;13.756;2022-10-03T15:06:51;15.60;99.90
19805;DHT22;10062;51.052;13.756;2022-10-03T15:09:31;15.60;99.90
19805;DHT22;10062;51.052;13.756;2022-10-03T15:12:07;15.60;1.00
19805;DHT22;10062;51.052;13.756;2022-10-03T15:14:44;15.60;1.00
19805;DHT22;10062;51.052;13.756;2022-10-03T15:17:20;15.50;1.00
19805;DHT22;10062;51.052;13.756;2022-10-03T15:19:54;15.50;1.00
19805;DHT22;10062;51.052;13.756;2022-10-03T15:22:31;15.50;1.00
19805;DHT22;10062;51.052;13.756;2022-10-03T15:25:07;15.50;99.90
19805;DHT22;10062;51.052;13.756;2022-10-03T15:27:45;15.50;99.90
19805;DHT22;10062;51.052;13.756;2022-10-03T15:30:21;15.70;1.00
19805;DHT22;10062;51.052;13.756;2022-10-03T15:33:03;15.40;99.90
19805;DHT22;10062;51.052;13.756;2022-10-03T15:35:39;15.40;96.50
19805;DHT22;10062;51.052;13.756;2022-10-03T15:38:15;15.30;20.40
19805;DHT22;10062;51.052;13.756;2022-10-03T15:40:51;15.80;1.00
19805;DHT22;10062;51.052;13.756;2022-10-03T15:43:31;15.40;1.00
19805;DHT22;10062;51.052;13.756;2022-10-03T15:46:10;15.50;8.50
19805;DHT22;10062;51.052;13.756;2022-10-03T15:48:43;15.40;42.40
19805;DHT22;10062;51.052;13.756;2022-10-03T15:51:17;15.30;99.90
19805;DHT22;10062;51.052;13.756;2022-10-03T15:53:55;15.30;99.90
19805;DHT22;10062;51.052;13.756;2022-10-03T15:56:32;15.20;99.90
19805;DHT22;10062;51.052;13.756;2022-10-03T15:59:08;15.20;99.90
19805;DHT22;10062;51.052;13.756;2022-10-03T16:01:46;15.20;99.90
19805;DHT22;10062;51.052;13.756;2022-10-03T16:04:23;15.20;99.90
19805;DHT22;10062;51.052;13.756;2022-10-03T16:07:00;15.20;19.50
19805;DHT22;10062;51.052;13.756;2022-10-03T16:09:42;15.10;99.90
19805;DHT22;10062;51.052;13.756;2022-10-03T16:12:37;15.10;1.00
19805;DHT22;10062;51.052;13.756;2022-10-03T16:15:20;15.30;1.00
19805;DHT22;10062;51.052;13.756;2022-10-03T16:17:55;15.10;1.00
19805;DHT22;10062;51.052;13.756;2022-10-03T16:20:36;15.40;1.00
19805;DHT22;10062;51.052;13.756;2022-10-03T16:23:15;15.10;1.00
19805;DHT22;10062;51.052;13.756;2022-10-03T16:25:53;15.00;1.00
19805;DHT22;10062;51.052;13.756;2022-10-03T16:28:30;14.90;85.30
19805;DHT22;10062;51.052;13.756;2022-10-03T16:31:05;14.90;99.90
19805;DHT22;10062;51.052;13.756;2022-10-03T16:33:45;14.80;1.00
19805;DHT22;10062;51.052;13.756;2022-10-03T16:36:20;14.80;1.00
19805;DHT22;10062;51.052;13.756;2022-10-03T16:38:56;14.80;1.00
19805;DHT22;10062;51.052;13.756;2022-10-03T16:41:33;14.70;1.00
19805;DHT22;10062;51.052;13.756;2022-10-03T16:44:22;14.70;1.00
19805;DHT22;10062;51.052;13.756;2022-10-03T16:46:56;14.70;1.00
19805;DHT22;10062;51.052;13.756;2022-10-03T16:49:36;14.80;1.00
19805;DHT22;10062;51.052;13.756;2022-10-03T16:52:30;14.70;1.00
19805;DHT22;10062;51.052;13.756;2022-10-03T16:55:06;14.60;1.00
19805;DHT22;10062;51.052;13.756;2022-10-03T16:57:43;14.70;1.00
19805;DHT22;10062;51.052;13.756;2022-10-03T17:00:20;14.70;1.00
19805;DHT22;10062;51.052;13.756;2022-10-03T17:02:53;16.90;1.00
19805;DHT22;10062;51.052;13.756;2022-10-03T17:05:26;14.60;1.00
19805;DHT22;10062;51.052;13.756;2022-10-03T17:07:59;14.60;24.50
19805;DHT22;10062;51.052;13.756;2022-10-03T17:10:34;14.60;99.90
19805;DHT22;10062;51.052;13.756;2022-10-03T17:13:14;14.60;99.90
19805;DHT22;10062;51.052;13.756;2022-10-03T17:15:50;14.60;1.00
19805;DHT22;10062;51.052;13.756;2022-10-03T17:18:25;14.60;1.00
19805;DHT22;10062;51.052;13.756;2022-10-03T17:21:05;14.50;1.00
19805;DHT22;10062;51.052;13.756;2022-10-03T17:23:43;14.50;1.00
19805;DHT22;10062;51.052;13.756;2022-10-03T17:26:22;14.50;1.00
19805;DHT22;10062;51.052;13.756;2022-10-03T17:29:05;14.50;1.00
19805;DHT22;10062;51.052;13.756;2022-10-03T17:31:44;14.50;1.00
19805;DHT22;10062;51.052;13.756;2022-10-03T17:34:18;14.50;1.00
19805;DHT22;10062;51.052;13.756;2022-10-03T17:37:01;14.40;1.00
19805;DHT22;10062;51.052;13.756;2022-10-03T17:39:48;14.40;1.00
19805;DHT22;10062;51.052;13.756;2022-10-03T17:42:41;14.40;1.00
19805;DHT22;10062;51.052;13.756;2022-10-03T17:45:29;14.40;1.00
19805;DHT22;10062;51.052;13.756;2022-10-03T17:48:09;14.50;1.00
19805;DHT22;10062;51.052;13.756;2022-10-03T17:50:52;14.40;1.00
19805;DHT22;10062;51.052;13.756;2022-10-03T17:53:28;14.50;1.00
19805;DHT22;10062;51.052;13.756;2022-10-03T17:56:07;14.50;1.00
19805;DHT22;10062;51.052;13.756;2022-10-03T17:58:44;14.40;99.90
19805;DHT22;10062;51.052;13.756;2022-10-03T18:01:19;14.40;1.00
19805;DHT22;10062;51.052;13.756;2022-10-03T18:03:56;14.40;1.00
19805;DHT22;10062;51.052;13.756;2022-10-03T18:06:41;14.40;1.00
19805;DHT22;10062;51.052;13.756;2022-10-03T18:09:24;14.40;99.90
19805;DHT22;10062;51.052;13.756;2022-10-03T18:12:11;14.40;1.00
19805;DHT22;10062;51.052;13.756;2022-10-03T18:15:18;14.30;1.00
19805;DHT22;10062;51.052;13.756;2022-10-03T18:18:06;14.30;1.00
19805;DHT22;10062;51.052;13.756;2022-10-03T18:20:47;14.30;1.00
19805;DHT22;10062;51.052;13.756;2022-10-03T18:23:22;14.30;1.00
19805;DHT22;10062;51.052;13.756;2022-10-03T18:26:01;14.40;1.00
19805;DHT22;10062;51.052;13.756;2022-10-03T18:28:44;14.30;1.00
19805;DHT22;10062;51.052;13.756;2022-10-03T18:31:19;14.20;1.00
19805;DHT22;10062;51.052;13.756;2022-10-03T18:33:55;14.30;1.00
19805;DHT22;10062;51.052;13.756;2022-10-03T18:36:30;14.20;1.00
19805;DHT22;10062;51.052;13.756;2022-10-03T18:39:06;14.30;1.00
19805;DHT22;10062;51.052;13.756;2022-10-03T18:41:43;14.20;1.00
19805;DHT22;10062;51.052;13.756;2022-10-03T18:44:17;14.10;1.00
19805;DHT22;10062;51.052;13.756;2022-10-03T18:47:00;14.00;1.00
19805;DHT22;10062;51.052;13.756;2022-10-03T18:49:39;14.00;1.00
19805;DHT22;10062;51.052;13.756;2022-10-03T18:52:17;14.10;1.00
19805;DHT22;10062;51.052;13.756;2022-10-03T18:54:55;13.90;1.00
19805;DHT22;10062;51.052;13.756;2022-10-03T18:57:34;13.80;1.00
19805;DHT22;10062;51.052;13.756;2022-10-03T19:00:15;13.90;1.00
19805;DHT22;10062;51.052;13.756;2022-10-03T19:02:51;13.80;1.00
19805;DHT22;10062;51.052;13.756;2022-10-03T19:05:28;14.30;1.00
19805;DHT22;10062;51.052;13.756;2022-10-03T19:08:09;13.90;1.00
19805;DHT22;10062;51.052;13.756;2022-10-03T19:10:49;13.90;1.00
19805;DHT22;10062;51.052;13.756;2022-10-03T19:13:28;13.90;1.00
19805;DHT22;10062;51.052;13.756;2022-10-03T19:16:38;13.90;1.00
19805;DHT22;10062;51.052;13.756;2022-10-03T19:19:18;13.90;1.00
19805;DHT22;10062;51.052;13.756;2022-10-03T19:21:54;13.80;1.00
19805;DHT22;10062;51.052;13.756;2022-10-03T19:24:28;13.80;1.00
19805;DHT22;10062;51.052;13.756;2022-10-03T19:27:05;13.90;1.00
19805;DHT22;10062;51.052;13.756;2022-10-03T19:29:44;13.90;1.00
19805;DHT22;10062;51.052;13.756;2022-10-03T19:32:23;13.80;1.00